Time;durP1;ratioP1;P1;durP2;ratioP2;P2;SDS_P1;SDS_P2;PMS_P1;PMS_P2;Temp;Humidity;BMP_temperature;BMP_pressure;BME280_temperature;BME280_humidity;BME280_pressure;Samples;Min_cycle;Max_cycle;Signal;HPM_P1;HPM_P2
2023/03/31 00:07:22;;;;;;;33.50;19.77;;;5.00;99.90;;;;;;20412459;29;20047;-52
2023/03/31 00:17:25;;;;;;;33.90;19.13;;;4.90;99.90;;;;;;20443846;29;20063;-52
2023/03/31 00:27:27;;;;;;;28.63;15.98;;;4.60;99.90;;;;;;20417098;29;20489;-52
2023/03/31 00:37:29;;;;;;;43.67;24.27;;;4.80;99.90;;;;;;20421776;29;20036;-49
2023/03/31 00:47:31;;;;;;;49.28;25.75;;;5.10;99.90;;;;;;20443754;29;20388;-50
2023/03/31 00:57:35;;;;;;;36.35;20.77;;;5.20;99.90;;;;;;20480360;29;20619;-52
2023/03/31 01:07:42;;;;;;;34.55;19.25;;;5.20;99.90;;;;;;20420705;29;20044;-49
2023/03/31 01:17:48;;;;;;;35.58;20.00;;;5.10;99.90;;;;;;20417836;29;20036;-48
2023/03/31 01:28:03;;;;;;;36.67;19.15;;;5.30;99.90;;;;;;20458567;28;20032;-51
2023/03/31 01:38:23;;;;;;;22.70;15.35;;;5.30;99.90;;;;;;20435264;29;20036;-48
2023/03/31 01:48:29;;;;;;;25.27;14.10;;;5.30;99.90;;;;;;20434236;29;20099;-52
2023/03/31 01:58:51;;;;;;;22.30;12.93;;;5.40;99.90;;;;;;20433715;29;20044;-49
2023/03/31 02:09:02;;;;;;;33.78;18.40;;;5.40;99.90;;;;;;20465233;29;20409;-51
2023/03/31 02:19:06;;;;;;;33.15;19.85;;;5.40;99.90;;;;;;20413789;29;20047;-50
2023/03/31 02:29:08;;;;;;;36.97;19.45;;;5.30;99.90;;;;;;20431014;29;20035;-47
2023/03/31 02:39:16;;;;;;;32.05;18.30;;;5.30;99.90;;;;;;20429740;29;20370;-51
2023/03/31 02:49:18;;;;;;;32.15;18.55;;;5.30;99.90;;;;;;20466196;29;20098;-51
2023/03/31 02:59:29;;;;;;;29.90;16.25;;;5.40;99.90;;;;;;20454817;29;20111;-50
2023/03/31 03:09:39;;;;;;;223.23;23.88;;;5.40;99.90;;;;;;20427382;29;20409;-48
2023/03/31 03:19:42;;;;;;;789.93;44.83;;;5.30;99.90;;;;;;20421473;29;20036;-47
2023/03/31 03:29:43;;;;;;;1999.90;98.80;;;5.30;99.90;;;;;;20464478;29;20036;-52
2023/03/31 03:39:45;;;;;;;1029.00;57.25;;;5.20;99.90;;;;;;20426154;29;20086;-48
2023/03/31 03:49:48;;;;;;;432.85;34.60;;;5.10;99.90;;;;;;20424955;29;20032;-48
2023/03/31 03:59:49;;;;;;;1161.40;61.55;;;5.10;99.90;;;;;;20424212;29;20036;-44
2023/03/31 04:09:51;;;;;;;46.85;20.80;;;5.00;99.90;;;;;;20464649;29;20051;-50
2023/03/31 04:19:52;;;;;;;563.00;39.15;;;4.90;99.90;;;;;;20420333;29;20043;-52
2023/03/31 04:29:54;;;;;;;46.45;18.85;;;4.90;99.90;;;;;;20422135;29;20032;-49
2023/03/31 04:39:57;;;;;;;28.05;13.60;;;5.00;99.90;;;;;;20399995;29;20094;-46
2023/03/31 04:49:58;;;;;;;18.52;10.48;;;4.90;99.90;;;;;;20463289;29;20477;-51
2023/03/31 05:00:00;;;;;;;18.05;9.70;;;5.00;99.90;;;;;;20460208;29;20044;-50
2023/03/31 05:10:02;;;;;;;17.52;10.57;;;5.00;99.90;;;;;;20430816;29;20090;-52
2023/03/31 05:20:05;;;;;;;18.13;8.80;;;5.00;99.90;;;;;;20465164;29;20533;-52
2023/03/31 05:30:07;;;;;;;15.52;7.55;;;5.10;99.90;;;;;;20423517;29;20036;-49
2023/03/31 05:40:10;;;;;;;19.55;8.20;;;5.10;99.90;;;;;;20430674;29;20094;-53
2023/03/31 05:50:12;;;;;;;17.55;7.10;;;5.20;99.90;;;;;;20477739;29;20071;-50
2023/03/31 06:00:14;;;;;;;14.93;7.32;;;5.20;99.90;;;;;;20451368;29;20363;-53
2023/03/31 06:10:15;;;;;;;16.10;8.60;;;5.50;99.90;;;;;;20418101;29;20123;-45
2023/03/31 06:20:17;;;;;;;17.42;10.15;;;5.70;99.90;;;;;;20427753;29;20072;-49
2023/03/31 06:30:19;;;;;;;30.85;18.08;;;5.70;99.90;;;;;;20431356;29;20023;-51
2023/03/31 06:40:21;;;;;;;174.98;24.42;;;5.80;99.90;;;;;;20425429;29;20086;-50
2023/03/31 06:50:22;;;;;;;296.45;26.50;;;5.60;99.90;;;;;;20493637;29;20492;-51
2023/03/31 07:00:25;;;;;;;692.88;38.17;;;5.60;99.90;;;;;;20461329;29;20043;-48
2023/03/31 07:10:29;;;;;;;1999.90;97.30;;;5.50;99.90;;;;;;20428159;29;20040;-52
2023/03/31 07:20:32;;;;;;;563.45;35.80;;;5.30;99.90;;;;;;20424116;29;20031;-51
2023/03/31 07:30:34;;;;;;;629.80;39.50;;;5.40;99.90;;;;;;20426295;29;20044;-45
2023/03/31 07:40:36;;;;;;;88.38;18.38;;;5.40;99.90;;;;;;20492610;29;20038;-50
2023/03/31 07:50:38;;;;;;;350.33;27.08;;;5.30;99.90;;;;;;20425660;29;20401;-48
2023/03/31 08:00:47;;;;;;;24.95;14.05;;;5.40;99.90;;;;;;20407413;29;20032;-47
2023/03/31 08:10:48;;;;;;;31.67;15.18;;;5.60;99.90;;;;;;20467256;29;20052;-52
2023/03/31 08:20:50;;;;;;;22.00;13.10;;;5.90;99.90;;;;;;20418860;29;20086;-52
2023/03/31 08:30:51;;;;;;;34.60;15.63;;;6.00;99.90;;;;;;20422779;29;20035;-51
2023/03/31 08:40:59;;;;;;;882.72;46.08;;;6.00;99.90;;;;;;20420886;29;20057;-49
2023/03/31 08:51:10;;;;;;;160.55;21.23;;;5.90;99.90;;;;;;20472047;29;20047;-52
2023/03/31 09:01:22;;;;;;;590.28;36.08;;;5.80;99.90;;;;;;20451384;29;20067;-52
2023/03/31 09:11:33;;;;;;;637.58;37.30;;;6.10;99.90;;;;;;20419779;29;20043;-50
2023/03/31 09:21:43;;;;;;;301.17;23.98;;;6.50;99.90;;;;;;20424501;29;20035;-49
2023/03/31 09:31:45;;;;;;;114.17;20.63;;;6.70;99.90;;;;;;20445817;29;20055;-50
2023/03/31 09:41:49;;;;;;;349.85;26.20;;;6.80;99.90;;;;;;20419276;29;20445;-50
2023/03/31 09:52:14;;;;;;;21.08;13.18;;;6.70;99.90;;;;;;20430914;29;20154;-48
2023/03/31 10:02:31;;;;;;;13.02;7.05;;;7.10;99.90;;;;;;20433211;29;20445;-49
2023/03/31 10:12:34;;;;;;;11.88;5.15;;;7.60;99.90;;;;;;20475675;29;20079;-51
2023/03/31 10:22:44;;;;;;;8.02;3.33;;;7.50;99.90;;;;;;20427545;29;20036;-47
2023/03/31 10:32:46;;;;;;;11.30;4.00;;;7.70;99.90;;;;;;20423864;29;20064;-53
2023/03/31 10:43:14;;;;;;;13.88;4.80;;;7.60;99.90;;;;;;20430535;29;20035;-52
2023/03/31 10:53:17;;;;;;;7.85;3.60;;;7.00;99.90;;;;;;20497765;29;20042;-52
2023/03/31 11:03:35;;;;;;;13.05;6.40;;;6.40;99.90;;;;;;20442419;29;20048;-49
2023/03/31 11:14:17;;;;;;;13.40;5.07;;;6.20;99.90;;;;;;20428122;29;20046;-52
2023/03/31 11:24:30;;;;;;;6.45;3.20;;;6.20;99.90;;;;;;20454335;29;20027;-46
2023/03/31 11:34:32;;;;;;;12.02;6.47;;;6.30;99.90;;;;;;20431036;29;20035;-52
2023/03/31 11:44:57;;;;;;;14.18;6.45;;;6.20;99.90;;;;;;20425805;29;20036;-52
2023/03/31 11:55:06;;;;;;;11.90;5.03;;;6.40;99.90;;;;;;20425602;29;20036;-53
2023/03/31 12:05:11;;;;;;;14.40;6.03;;;6.80;99.90;;;;;;20410448;29;20118;-52
2023/03/31 12:15:29;;;;;;;12.30;2.67;;;6.70;99.90;;;;;;20441420;29;20035;-51
2023/03/31 12:25:45;;;;;;;11.75;3.50;;;6.60;99.90;;;;;;20418676;29;20358;-51
2023/03/31 12:36:06;;;;;;;19.23;8.65;;;6.40;99.90;;;;;;20422218;29;20106;-54
2023/03/31 12:46:41;;;;;;;15.52;5.38;;;6.30;99.90;;;;;;20432858;29;20035;-53
2023/03/31 12:57:00;;;;;;;14.80;4.53;;;6.60;99.90;;;;;;20487540;29;20397;-54
2023/03/31 13:07:05;;;;;;;10.80;3.72;;;6.80;99.90;;;;;;20420561;29;20375;-54
2023/03/31 13:17:36;;;;;;;12.43;4.07;;;6.70;99.90;;;;;;20419514;29;20293;-53
2023/03/31 13:27:48;;;;;;;9.75;3.67;;;6.50;99.90;;;;;;20439471;29;20461;-52
2023/03/31 13:38:06;;;;;;;11.95;3.17;;;6.40;99.90;;;;;;20418999;29;20038;-53
2023/03/31 13:48:34;;;;;;;16.88;5.07;;;6.50;99.90;;;;;;20418597;29;20571;-49
2023/03/31 13:58:51;;;;;;;13.95;3.42;;;6.40;99.90;;;;;;20418425;29;20039;-53
2023/03/31 14:09:12;;;;;;;12.75;3.85;;;6.40;99.90;;;;;;20450991;29;20094;-53
2023/03/31 14:19:48;;;;;;;10.68;4.75;;;6.50;99.90;;;;;;20419910;29;20051;-53
2023/03/31 14:30:22;;;;;;;10.18;4.30;;;6.30;99.90;;;;;;20403524;29;20059;-52
2023/03/31 14:40:24;;;;;;;781.78;43.30;;;6.10;99.90;;;;;;20429782;29;20114;-50
2023/03/31 14:50:33;;;;;;;23.63;10.60;;;5.90;99.90;;;;;;20475721;29;20035;-48
2023/03/31 15:00:38;;;;;;;577.03;37.40;;;5.50;99.90;;;;;;20447243;29;20438;-54
2023/03/31 15:10:44;;;;;;;51.53;20.60;;;5.40;99.90;;;;;;20440600;29;20047;-55
2023/03/31 15:20:46;;;;;;;177.40;23.55;;;5.30;99.90;;;;;;20464135;29;20470;-45
2023/03/31 15:30:50;;;;;;;66.95;20.38;;;5.30;99.90;;;;;;20430997;29;20408;-55
2023/03/31 15:40:55;;;;;;;33.78;19.70;;;5.30;99.90;;;;;;20456101;29;20032;-48
2023/03/31 15:51:16;;;;;;;49.20;23.88;;;5.40;99.90;;;;;;20436366;29;20039;-50
2023/03/31 16:01:19;;;;;;;45.13;21.85;;;5.50;99.90;;;;;;20454708;29;20490;-54
2023/03/31 16:11:32;;;;;;;31.65;17.92;;;5.50;99.90;;;;;;20423820;29;20036;-50
2023/03/31 16:21:42;;;;;;;29.90;14.68;;;5.50;99.90;;;;;;20428328;29;20059;-49
2023/03/31 16:31:44;;;;;;;22.83;8.73;;;5.60;99.90;;;;;;20449106;29;20040;-55
2023/03/31 16:41:46;;;;;;;27.08;10.82;;;5.80;99.90;;;;;;20433731;29;20090;-55
2023/03/31 16:51:47;;;;;;;20.77;7.97;;;6.00;99.90;;;;;;20494461;29;20141;-54
2023/03/31 17:01:52;;;;;;;14.68;7.90;;;6.10;99.90;;;;;;20440816;28;20051;-54
2023/03/31 17:11:53;;;;;;;13.05;5.95;;;6.20;99.90;;;;;;20420016;29;20036;-46
2023/03/31 17:21:56;;;;;;;12.60;5.38;;;6.30;99.90;;;;;;20416364;29;20059;-54
2023/03/31 17:31:57;;;;;;;9.20;4.50;;;6.30;99.90;;;;;;20398384;29;20032;-46
2023/03/31 17:41:59;;;;;;;10.00;4.65;;;6.20;99.90;;;;;;20483263;29;20063;-53
2023/03/31 17:52:01;;;;;;;12.10;5.13;;;6.20;99.90;;;;;;20418909;29;20405;-53
2023/03/31 18:02:03;;;;;;;8.35;5.28;;;6.20;99.90;;;;;;20417810;29;20072;-47
2023/03/31 18:12:04;;;;;;;7.85;4.78;;;6.40;99.90;;;;;;20470531;28;20032;-45
2023/03/31 18:22:07;;;;;;;8.20;4.22;;;6.40;99.90;;;;;;20428146;29;20477;-48
2023/03/31 18:32:09;;;;;;;13.40;5.45;;;6.50;99.90;;;;;;20431351;29;20068;-47
2023/03/31 18:42:10;;;;;;;7.82;4.43;;;6.40;99.90;;;;;;20431215;29;20068;-54
2023/03/31 18:52:13;;;;;;;8.68;3.83;;;6.50;99.90;;;;;;20488771;29;20039;-50
2023/03/31 19:02:16;;;;;;;3.35;2.25;;;6.70;99.90;;;;;;20450629;29;20039;-54
2023/03/31 19:12:21;;;;;;;5.15;3.17;;;6.80;99.90;;;;;;20427799;29;20040;-45
2023/03/31 19:22:26;;;;;;;8.43;3.13;;;6.60;99.90;;;;;;20443170;29;20547;-53
2023/03/31 19:32:28;;;;;;;4.95;2.90;;;6.60;99.90;;;;;;20448055;29;20044;-44
2023/03/31 19:42:31;;;;;;;5.85;2.20;;;6.70;99.90;;;;;;20425633;29;20035;-54
2023/03/31 19:52:33;;;;;;;2.63;1.80;;;6.50;99.90;;;;;;20407845;29;20036;-55
2023/03/31 20:02:35;;;;;;;2.85;1.50;;;6.70;99.90;;;;;;20423491;29;20076;-47
2023/03/31 20:12:38;;;;;;;2.88;1.35;;;7.10;99.90;;;;;;20466109;29;20036;-54
2023/03/31 20:22:40;;;;;;;7.03;3.47;;;6.70;99.90;;;;;;20418359;29;20447;-45
2023/03/31 20:32:43;;;;;;;4.07;2.20;;;6.20;99.90;;;;;;20422641;29;20055;-51
2023/03/31 20:42:45;;;;;;;4.68;2.60;;;6.20;99.90;;;;;;20421122;29;20042;-47
2023/03/31 20:52:47;;;;;;;4.65;2.22;;;5.90;99.90;;;;;;20485820;29;20480;-48
2023/03/31 21:02:50;;;;;;;5.53;3.05;;;5.30;99.90;;;;;;20432515;29;20039;-50
2023/03/31 21:12:51;;;;;;;12.77;8.82;;;5.10;99.90;;;;;;20429387;29;20039;-53
2023/03/31 21:22:56;;;;;;;30.88;17.27;;;4.70;99.90;;;;;;20460558;29;20039;-52
2023/03/31 21:32:57;;;;;;;21.27;11.63;;;4.10;99.90;;;;;;20427301;29;20544;-52
2023/03/31 21:42:59;;;;;;;14.73;8.48;;;3.50;99.90;;;;;;20421887;29;20454;-53
2023/03/31 21:53:03;;;;;;;19.65;11.63;;;2.90;99.90;;;;;;20436852;29;20040;-47
2023/03/31 22:03:05;;;;;;;41.70;22.85;;;2.80;99.90;;;;;;20452657;29;20051;-53
2023/03/31 22:13:07;;;;;;;33.78;15.13;;;3.30;99.90;;;;;;20488922;29;20039;-52
2023/03/31 22:23:08;;;;;;;25.40;13.60;;;2.70;99.90;;;;;;20429203;29;20067;-52
2023/03/31 22:33:10;;;;;;;29.45;14.93;;;2.30;99.90;;;;;;20431344;29;20028;-52
2023/03/31 22:43:12;;;;;;;25.85;12.88;;;2.10;99.90;;;;;;20430792;29;20023;-52
2023/03/31 22:53:13;;;;;;;23.23;13.93;;;1.90;99.90;;;;;;20497129;28;20118;-53
2023/03/31 23:03:15;;;;;;;19.45;10.80;;;1.90;99.90;;;;;;20444123;28;20114;-53
2023/03/31 23:13:17;;;;;;;20.05;11.10;;;1.80;99.90;;;;;;20429476;29;20481;-51
2023/03/31 23:23:18;;;;;;;17.15;8.65;;;1.80;99.90;;;;;;20446806;29;20035;-44
2023/03/31 23:33:20;;;;;;;14.73;8.25;;;1.70;99.90;;;;;;20441861;29;20027;-49
2023/03/31 23:43:21;;;;;;;18.85;8.27;;;1.60;99.90;;;;;;20426587;29;20374;-53
2023/03/31 23:53:23;;;;;;;15.82;7.95;;;1.50;99.90;;;;;;20427056;29;20036;-51
